| time (UTC) | temp C | wind direction | speed KPH | gust KPH | rain 1hr cm | rain 24hr cm | rain mn cm | humidity % | barometer mb |
| 20260906223604 | 37 | 175 | 3.2 | 14.5 | 0.00 | 0.00 | 0.00 | 46 | 1010.4 |
| 20260906222538 | 37 | 166 | 1.6 | 11.3 | 0.00 | 0.00 | 0.00 | 47 | 1010.5 |
| 20260906222038 | 37 | 124 | 1.6 | 11.3 | 0.00 | 0.00 | 0.00 | 47 | 1010.4 |
| 20260906221059 | 36 | 150 | 3.2 | 12.9 | 0.00 | 0.00 | 0.00 | 48 | 1010.5 |
| 20260906220602 | 36 | 150 | 3.2 | 12.9 | 0.00 | 0.00 | 0.00 | 48 | 1010.4 |
| 20260906215545 | 37 | 126 | 1.6 | 11.3 | 0.00 | 0.00 | 0.00 | 47 | 1010.4 |
| 20260906215044 | 37 | 108 | 1.6 | 11.3 | 0.00 | 0.00 | 0.00 | 47 | 1010.4 |
| 20260906214547 | 37 | 134 | 1.6 | 11.3 | 0.00 | 0.00 | 0.00 | 47 | 1010.5 |
| 20260906214046 | 37 | 133 | 1.6 | 11.3 | 0.00 | 0.00 | 0.00 | 47 | 1010.4 |
| 20260906213547 | 37 | 148 | 0.0 | 6.4 | 0.00 | 0.00 | 0.00 | 47 | 1010.4 |
| 20260906213040 | 37 | 128 | 0.0 | 4.8 | 0.00 | 0.00 | 0.00 | 47 | 1010.5 |
| 20260906211537 | 37 | 193 | 0.0 | 3.2 | 0.00 | 0.00 | 0.00 | 46 | 1010.8 |
| 20260906211037 | 37 | 132 | 0.0 | 1.6 | 0.00 | 0.00 | 0.00 | 46 | 1010.8 |
| 20260906210552 | 37 | 125 | 0.0 | 1.6 | 0.00 | 0.00 | 0.00 | 45 | 1010.9 |
| 20260906210053 | 37 | 144 | 0.0 | 3.2 | 0.00 | 0.00 | 0.00 | 46 | 1011.0 |
| 20260906205555 | 37 | 116 | 0.0 | 3.2 | 0.00 | 0.00 | 0.00 | 46 | 1011.1 |
| 20260906205049 | 38 | 134 | 1.6 | 11.3 | 0.00 | 0.00 | 0.00 | 45 | 1011.1 |
| 20260906204550 | 38 | 120 | 1.6 | 17.7 | 0.00 | 0.00 | 0.00 | 45 | 1011.2 |
| 20260906204047 | 38 | 139 | 1.6 | 17.7 | 0.00 | 0.00 | 0.00 | 45 | 1011.3 |
| 20260906203548 | 38 | 50 | 0.0 | 8.0 | 0.00 | 0.00 | 0.00 | 45 | 1011.2 |
| 20260906203047 | 37 | 62 | 3.2 | 12.9 | 0.00 | 0.00 | 0.00 | 46 | 1011.4 |
| 20260906202547 | 37 | 129 | 4.8 | 16.1 | 0.00 | 0.00 | 0.00 | 45 | 1011.4 |
| 20260906201523 | 37 | 119 | 1.6 | 11.3 | 0.00 | 0.00 | 0.00 | 46 | 1011.5 |
| 20260906201018 | 37 | 122 | 1.6 | 11.3 | 0.00 | 0.00 | 0.00 | 46 | 1011.5 |
| 20260906200559 | 37 | 123 | 0.0 | 9.7 | 0.00 | 0.00 | 0.00 | 46 | 1011.7 |
| 20260906200016 | 37 | 131 | 0.0 | 3.2 | 0.00 | 0.00 | 0.00 | 47 | 1011.6 |
| 20260906195558 | 37 | 137 | 0.0 | 3.2 | 0.00 | 0.00 | 0.00 | 47 | 1011.7 |
| 20260906195058 | 37 | 154 | 1.6 | 14.5 | 0.00 | 0.00 | 0.00 | 47 | 1011.7 |
| 20260906194514 | 37 | 169 | 1.6 | 14.5 | 0.00 | 0.00 | 0.00 | 46 | 1011.8 |
| 20260906194052 | 37 | 141 | 3.2 | 16.1 | 0.00 | 0.00 | 0.00 | 47 | 1011.8 |
| 20260906193557 | 36 | 170 | 3.2 | 16.1 | 0.00 | 0.00 | 0.00 | 48 | 1011.9 |
| 20260906192537 | 37 | 152 | 0.0 | 6.4 | 0.00 | 0.00 | 0.00 | 47 | 1012.1 |
| 20260906191044 | 37 | 159 | 0.0 | 3.2 | 0.00 | 0.00 | 0.00 | 46 | 1012.3 |
| 20260906190544 | 37 | 139 | 0.0 | 11.3 | 0.00 | 0.00 | 0.00 | 48 | 1012.4 |
| 20260906190042 | 36 | 76 | 0.0 | 11.3 | 0.00 | 0.00 | 0.00 | 49 | 1012.4 |
| 20260906185543 | 36 | 86 | 1.6 | 6.4 | 0.00 | 0.00 | 0.00 | 51 | 1012.5 |
| 20260906185042 | 36 | 126 | 1.6 | 9.7 | 0.00 | 0.00 | 0.00 | 47 | 1012.6 |
| 20260906184543 | 36 | 205 | 0.0 | 9.7 | 0.00 | 0.00 | 0.00 | 49 | 1012.5 |
| 20260906184043 | 36 | 120 | 0.0 | 3.2 | 0.00 | 0.00 | 0.00 | 49 | 1012.5 |
| 20260906183545 | 37 | 139 | 3.2 | 16.1 | 0.00 | 0.00 | 0.00 | 47 | 1012.6 |
| 20260906183045 | 37 | 151 | 1.6 | 16.1 | 0.00 | 0.00 | 0.00 | 47 | 1012.7 |
| 20260906182026 | 37 | 109 | 1.6 | 11.3 | 0.00 | 0.00 | 0.00 | 48 | 1012.8 |
| 20260906181528 | 37 | 119 | 0.0 | 11.3 | 0.00 | 0.00 | 0.00 | 47 | 1013.0 |
| 20260906181022 | 37 | 112 | 0.0 | 3.2 | 0.00 | 0.00 | 0.00 | 49 | 1013.1 |
| 20260906180052 | 36 | 134 | 1.6 | 14.5 | 0.00 | 0.00 | 0.00 | 51 | 1013.2 |
| 20260906175553 | 37 | 138 | 1.6 | 11.3 | 0.00 | 0.00 | 0.00 | 48 | 1013.2 |
| 20260906175047 | 36 | 214 | 0.0 | 9.7 | 0.00 | 0.00 | 0.00 | 52 | 1013.3 |
| 20260906174548 | 36 | 152 | 1.6 | 12.9 | 0.00 | 0.00 | 0.00 | 52 | 1013.5 |
| 20260906174042 | 36 | 132 | 1.6 | 16.1 | 0.00 | 0.00 | 0.00 | 52 | 1013.5 |
| 20260906173539 | 36 | 123 | 1.6 | 16.1 | 0.00 | 0.00 | 0.00 | 49 | 1013.4 |
| 20260906173039 | 36 | 131 | 0.0 | 11.3 | 0.00 | 0.00 | 0.00 | 51 | 1013.5 |
| 20260906172539 | 36 | 145 | 1.6 | 6.4 | 0.00 | 0.00 | 0.00 | 52 | 1013.5 |
| 20260906172035 | 36 | 122 | 1.6 | 12.9 | 0.00 | 0.00 | 0.00 | 52 | 1013.6 |
| 20260906171536 | 36 | 67 | 1.6 | 12.9 | 0.00 | 0.00 | 0.00 | 52 | 1013.6 |
| 20260906171035 | 36 | 141 | 1.6 | 11.3 | 0.00 | 0.00 | 0.00 | 53 | 1013.7 |
| 20260906170533 | 36 | 158 | 0.0 | 3.2 | 0.00 | 0.00 | 0.00 | 53 | 1013.7 |
| 20260906170028 | 36 | 94 | 0.0 | 3.2 | 0.00 | 0.00 | 0.00 | 53 | 1013.8 |
| 20260906164532 | 35 | 111 | 3.2 | 14.5 | 0.00 | 0.00 | 0.00 | 53 | 1014.0 |
| 20260906164031 | 36 | 178 | 1.6 | 12.9 | 0.00 | 0.00 | 0.00 | 53 | 1014.0 |
| 20260906163533 | 36 | 101 | 0.0 | 3.2 | 0.00 | 0.00 | 0.00 | 54 | 1014.0 |
| 20260906163032 | 35 | 74 | 0.0 | 9.7 | 0.00 | 0.00 | 0.00 | 56 | 1014.0 |
| 20260906161537 | 34 | 100 | 0.0 | 8.0 | 0.00 | 0.00 | 0.00 | 57 | 1013.7 |
| 20260906161037 | 34 | 157 | 0.0 | 8.0 | 0.00 | 0.00 | 0.00 | 57 | 1013.7 |
| 20260906160536 | 34 | 110 | 0.0 | 3.2 | 0.00 | 0.00 | 0.00 | 57 | 1013.8 |
| 20260906160038 | 34 | 121 | 0.0 | 3.2 | 0.00 | 0.00 | 0.00 | 58 | 1013.8 |
| 20260906155019 | 33 | 105 | 0.0 | 9.7 | 0.00 | 0.00 | 0.00 | 58 | 1013.8 |
| 20260906154524 | 33 | 136 | 1.6 | 9.7 | 0.00 | 0.00 | 0.00 | 59 | 1013.7 |
| 20260906154022 | 33 | 161 | 0.0 | 4.8 | 0.00 | 0.00 | 0.00 | 59 | 1013.7 |
| 20260906153525 | 33 | 164 | 0.0 | 3.2 | 0.00 | 0.00 | 0.00 | 59 | 1013.7 |
| 20260906152513 | 33 | 140 | 0.0 | 4.8 | 0.00 | 0.00 | 0.00 | 60 | 1013.7 |
| 20260906152014 | 33 | 63 | 0.0 | 4.8 | 0.00 | 0.00 | 0.00 | 62 | 1013.7 |
| 20260906151518 | 33 | 103 | 0.0 | 1.6 | 0.00 | 0.00 | 0.00 | 60 | 1013.7 |
| 20260906151020 | 33 | 98 | 0.0 | 1.6 | 0.00 | 0.00 | 0.00 | 61 | 1013.7 |
| 20260906150523 | 32 | 98 | 0.0 | 6.4 | 0.00 | 0.00 | 0.00 | 65 | 1013.6 |
| 20260906145508 | 32 | 112 | 0.0 | 1.6 | 0.00 | 0.00 | 0.00 | 68 | 1013.6 |
| 20260906145003 | 32 | 112 | 0.0 | 1.6 | 0.00 | 0.00 | 0.00 | 68 | 1013.7 |
| 20260906144509 | 31 | 112 | 0.0 | 1.6 | 0.00 | 0.00 | 0.00 | 73 | 1013.6 |
| 20260906144007 | 31 | 112 | 0.0 | 4.8 | 0.00 | 0.00 | 0.00 | 74 | 1013.5 |
| 20260906143512 | 30 | 112 | 0.0 | 4.8 | 0.00 | 0.00 | 0.00 | 76 | 1013.6 |
| 20260906143012 | 30 | 112 | 0.0 | 3.2 | 0.00 | 0.00 | 0.00 | 77 | 1013.7 |
| 20260906142518 | 30 | 111 | 0.0 | 3.2 | 0.00 | 0.00 | 0.00 | 79 | 1013.7 |
| 20260906141506 | 28 | 111 | 0.0 | 3.2 | 0.00 | 0.00 | 0.00 | 83 | 1013.8 |
| 20260906141009 | 28 | 111 | 0.0 | 4.8 | 0.00 | 0.00 | 0.00 | 86 | 1013.8 |
| 20260906140511 | 27 | 111 | 0.0 | 4.8 | 0.00 | 0.00 | 0.00 | 87 | 1013.8 |
| 20260906135459 | 27 | 111 | 0.0 | 4.8 | 0.00 | 0.00 | 0.00 | 91 | 1013.7 |
| 20260906134528 | 26 | 111 | 0.0 | 1.6 | 0.00 | 0.00 | 0.00 | 93 | 1013.8 |
| 20260906134026 | 26 | 112 | 0.0 | 1.6 | 0.00 | 0.00 | 0.00 | 94 | 1013.8 |
| 20260906133450 | 25 | 113 | 0.0 | 1.6 | 0.00 | 0.00 | 0.00 | 95 | 1013.8 |
| 20260906132954 | 25 | 113 | 0.0 | 1.6 | 0.00 | 0.00 | 0.00 | 95 | 1013.8 |
| 20260906132457 | 25 | 113 | 0.0 | 1.6 | 0.00 | 0.00 | 0.00 | 96 | 1013.8 |
| 20260906132001 | 24 | 113 | 0.0 | 1.6 | 0.00 | 0.00 | 0.00 | 96 | 1013.8 |
| 20260906130955 | 24 | 113 | 0.0 | 1.6 | 0.00 | 0.00 | 0.00 | 96 | 1013.8 |
| 20260906130458 | 23 | 113 | 0.0 | 1.6 | 0.00 | 0.00 | 0.00 | 96 | 1013.8 |
| 20260906130004 | 23 | 113 | 0.0 | 1.6 | 0.00 | 0.00 | 0.00 | 96 | 1013.6 |
| 20260906125508 | 23 | 113 | 0.0 | 0.0 | 0.00 | 0.00 | 0.00 | 96 | 1013.6 |
| 20260906125011 | 23 | 103 | 0.0 | 0.0 | 0.00 | 0.00 | 0.00 | 96 | 1013.6 |
| 20260906124000 | 23 | 153 | 0.0 | 1.6 | 0.00 | 0.00 | 0.00 | 95 | 1013.5 |
| 20260906123503 | 23 | 153 | 0.0 | 0.0 | 0.00 | 0.00 | 0.00 | 95 | 1013.5 |
| 20260906122457 | 23 | 151 | 0.0 | 0.0 | 0.00 | 0.00 | 0.00 | 95 | 1013.3 |
| 20260906121444 | 23 | 146 | 0.0 | 0.0 | 0.00 | 0.00 | 0.00 | 95 | 1013.3 |
| 20260906120945 | 23 | 146 | 0.0 | 0.0 | 0.00 | 0.00 | 0.00 | 95 | 1013.3 |
| 20260906120454 | 23 | 146 | 0.0 | 0.0 | 0.00 | 0.00 | 0.00 | 95 | 1013.2 |
| 20260906115955 | 23 | 146 | 0.0 | 0.0 | 0.00 | 0.00 | 0.00 | 95 | 1013.2 |
| 20260906115507 | 23 | 146 | 0.0 | 0.0 | 0.00 | 0.00 | 0.00 | 94 | 1013.2 |
| 20260906114458 | 23 | 146 | 0.0 | 0.0 | 0.00 | 0.00 | 0.00 | 94 | 1013.1 |
| 20260906113952 | 23 | 146 | 0.0 | 1.6 | 0.00 | 0.00 | 0.00 | 94 | 1013.0 |
| 20260906113459 | 23 | 146 | 0.0 | 1.6 | 0.00 | 0.00 | 0.00 | 94 | 1013.1 |
| 20260906113000 | 23 | 146 | 0.0 | 1.6 | 0.00 | 0.00 | 0.00 | 94 | 1013.0 |
| 20260906112510 | 23 | 146 | 0.0 | 1.6 | 0.00 | 0.00 | 0.00 | 94 | 1013.0 |
| 20260906111930 | 23 | 146 | 0.0 | 0.0 | 0.00 | 0.00 | 0.00 | 94 | 1012.9 |
| 20260906111437 | 23 | 146 | 0.0 | 0.0 | 0.00 | 0.00 | 0.00 | 94 | 1012.9 |
| 20260906110943 | 23 | 146 | 0.0 | 0.0 | 0.00 | 0.00 | 0.00 | 94 | 1012.8 |
| 20260906110454 | 23 | 146 | 0.0 | 0.0 | 0.00 | 0.00 | 0.00 | 94 | 1012.8 |
| 20260906110000 | 23 | 146 | 0.0 | 0.0 | 0.00 | 0.00 | 0.00 | 94 | 1012.8 |
| 20260906105511 | 23 | 146 | 0.0 | 0.0 | 0.00 | 0.00 | 0.00 | 94 | 1012.7 |
| 20260906105006 | 23 | 146 | 0.0 | 1.6 | 0.00 | 0.00 | 0.00 | 94 | 1012.6 |
| 20260906104429 | 23 | 146 | 0.0 | 1.6 | 0.00 | 0.00 | 0.00 | 94 | 1012.4 |
| 20260906103928 | 24 | 146 | 0.0 | 0.0 | 0.00 | 0.00 | 0.00 | 93 | 1012.5 |
| 20260906103436 | 24 | 146 | 0.0 | 0.0 | 0.00 | 0.00 | 0.00 | 93 | 1012.5 |
| 20260906102941 | 24 | 146 | 0.0 | 0.0 | 0.00 | 0.00 | 0.00 | 93 | 1012.4 |
| 20260906102450 | 24 | 146 | 0.0 | 0.0 | 0.00 | 0.00 | 0.00 | 93 | 1012.4 |
| 20260906101953 | 24 | 146 | 0.0 | 0.0 | 0.00 | 0.00 | 0.00 | 93 | 1012.3 |
| 20260906101505 | 24 | 146 | 0.0 | 0.0 | 0.00 | 0.00 | 0.00 | 93 | 1012.4 |
| 20260906100455 | 24 | 146 | 0.0 | 0.0 | 0.00 | 0.00 | 0.00 | 92 | 1012.4 |
| 20260906100002 | 24 | 146 | 0.0 | 0.0 | 0.00 | 0.00 | 0.00 | 91 | 1012.5 |
| 20260906095508 | 24 | 146 | 0.0 | 0.0 | 0.00 | 0.00 | 0.00 | 91 | 1012.4 |
| 20260906095009 | 25 | 146 | 0.0 | 0.0 | 0.00 | 0.00 | 0.00 | 91 | 1012.4 |
| 20260906094515 | 25 | 146 | 0.0 | 0.0 | 0.00 | 0.00 | 0.00 | 91 | 1012.4 |
| 20260906093931 | 25 | 146 | 0.0 | 0.0 | 0.00 | 0.00 | 0.00 | 89 | 1012.3 |
| 20260906093435 | 25 | 146 | 0.0 | 0.0 | 0.00 | 0.00 | 0.00 | 89 | 1012.2 |
| 20260906092941 | 25 | 146 | 0.0 | 0.0 | 0.00 | 0.00 | 0.00 | 89 | 1012.2 |
| 20260906092002 | 25 | 146 | 0.0 | 0.0 | 0.00 | 0.00 | 0.00 | 87 | 1012.1 |
| 20260906091422 | 25 | 146 | 0.0 | 0.0 | 0.00 | 0.00 | 0.00 | 87 | 1012.2 |
| 20260906090922 | 25 | 146 | 0.0 | 0.0 | 0.00 | 0.00 | 0.00 | 87 | 1012.2 |
| 20260906090423 | 25 | 146 | 0.0 | 0.0 | 0.00 | 0.00 | 0.00 | 86 | 1012.1 |
| 20260906085918 | 25 | 146 | 0.0 | 0.0 | 0.00 | 0.00 | 0.00 | 86 | 1012.1 |
| 20260906085419 | 25 | 146 | 0.0 | 0.0 | 0.00 | 0.00 | 0.00 | 86 | 1012.0 |
| 20260906084959 | 25 | 146 | 0.0 | 1.6 | 0.00 | 0.00 | 0.00 | 86 | 1012.0 |
| 20260906084420 | 26 | 146 | 0.0 | 1.6 | 0.00 | 0.00 | 0.00 | 85 | 1011.9 |
| 20260906083919 | 26 | 146 | 0.0 | 1.6 | 0.00 | 0.00 | 0.00 | 85 | 1011.9 |
| 20260906083422 | 26 | 146 | 0.0 | 0.0 | 0.00 | 0.00 | 0.00 | 85 | 1011.8 |
| 20260906082918 | 26 | 146 | 0.0 | 1.6 | 0.00 | 0.00 | 0.00 | 85 | 1011.8 |
| 20260906082418 | 26 | 146 | 0.0 | 1.6 | 0.00 | 0.00 | 0.00 | 84 | 1011.8 |
| 20260906081914 | 26 | 146 | 0.0 | 1.6 | 0.00 | 0.00 | 0.00 | 84 | 1011.8 |
| 20260906081416 | 26 | 142 | 0.0 | 1.6 | 0.00 | 0.00 | 0.00 | 84 | 1011.8 |
| 20260906075939 | 26 | 141 | 0.0 | 1.6 | 0.00 | 0.00 | 0.00 | 83 | 1011.9 |
| 20260906075358 | 26 | 145 | 0.0 | 1.6 | 0.00 | 0.00 | 0.00 | 83 | 1011.7 |
| 20260906074904 | 26 | 145 | 0.0 | 0.0 | 0.00 | 0.00 | 0.00 | 83 | 1011.7 |
| 20260906074409 | 26 | 145 | 0.0 | 0.0 | 0.00 | 0.00 | 0.00 | 82 | 1011.7 |
| 20260906073357 | 26 | 145 | 0.0 | 1.6 | 0.00 | 0.00 | 0.00 | 82 | 1011.8 |
| 20260906073255 | 26 | 137 | 0.0 | 1.6 | 0.00 | 0.00 | 0.00 | 62 | 1014.6 |
| 20260906073249 | 27 | 135 | 0.0 | 1.6 | 0.00 | 0.00 | 0.00 | 60 | 1014.7 |
| 20260906072929 | 26 | 145 | 0.0 | 1.6 | 0.00 | 0.00 | 0.00 | 82 | 1011.7 |
| 20260906072351 | 26 | 145 | 0.0 | 1.6 | 0.00 | 0.00 | 0.00 | 82 | 1011.8 |
| 20260906071940 | 26 | 145 | 0.0 | 1.6 | 0.00 | 0.00 | 0.00 | 82 | 1011.8 |
| 20260906071404 | 26 | 145 | 0.0 | 1.6 | 0.00 | 0.00 | 0.00 | 82 | 1011.9 |
| 20260906071305 | 27 | 138 | 0.0 | 3.2 | 0.00 | 0.00 | 0.00 | 60 | 1014.7 |
| 20260906070900 | 26 | 144 | 0.0 | 1.6 | 0.00 | 0.00 | 0.00 | 82 | 1012.0 |
| 20260906065930 | 27 | 144 | 0.0 | 1.6 | 0.00 | 0.00 | 0.00 | 82 | 1012.2 |
| 20260906065349 | 27 | 144 | 0.0 | 1.6 | 0.00 | 0.00 | 0.00 | 82 | 1012.3 |
| 20260906064423 | 27 | 143 | 0.0 | 1.6 | 0.00 | 0.00 | 0.00 | 81 | 1012.2 |
| 20260906063411 | 27 | 143 | 0.0 | 1.6 | 0.00 | 0.00 | 0.00 | 81 | 1012.3 |
| 20260906062912 | 27 | 143 | 0.0 | 1.6 | 0.00 | 0.00 | 0.00 | 80 | 1012.1 |
| 20260906062414 | 27 | 143 | 0.0 | 1.6 | 0.00 | 0.00 | 0.00 | 80 | 1012.2 |
| 20260906061916 | 27 | 140 | 0.0 | 1.6 | 0.00 | 0.00 | 0.00 | 79 | 1012.1 |
| 20260906061410 | 27 | 163 | 0.0 | 1.6 | 0.00 | 0.00 | 0.00 | 79 | 1012.1 |
| 20260906055420 | 27 | 150 | 0.0 | 1.6 | 0.00 | 0.00 | 0.00 | 79 | 1012.2 |
| 20260906054922 | 27 | 150 | 0.0 | 1.6 | 0.00 | 0.00 | 0.00 | 78 | 1012.3 |
| 20260906054428 | 27 | 148 | 0.0 | 1.6 | 0.00 | 0.00 | 0.00 | 79 | 1012.4 |
| 20260906053853 | 27 | 148 | 0.0 | 1.6 | 0.00 | 0.00 | 0.00 | 79 | 1012.3 |
| 20260906053358 | 27 | 148 | 0.0 | 1.6 | 0.00 | 0.00 | 0.00 | 78 | 1012.2 |
| 20260906052900 | 27 | 148 | 0.0 | 1.6 | 0.00 | 0.00 | 0.00 | 79 | 1012.3 |
| 20260906052408 | 27 | 148 | 0.0 | 0.0 | 0.00 | 0.00 | 0.00 | 78 | 1012.1 |
| 20260906050926 | 27 | 148 | 0.0 | 0.0 | 0.00 | 0.00 | 0.00 | 78 | 1012.1 |
| 20260906050348 | 27 | 148 | 0.0 | 0.0 | 0.00 | 0.00 | 0.00 | 77 | 1012.1 |
| 20260906045847 | 27 | 148 | 0.0 | 0.0 | 0.00 | 0.00 | 0.00 | 77 | 1012.1 |
| 20260906045350 | 28 | 148 | 0.0 | 0.0 | 0.00 | 0.00 | 0.00 | 76 | 1012.1 |
| 20260906044854 | 28 | 148 | 0.0 | 0.0 | 0.00 | 0.00 | 0.00 | 76 | 1012.1 |
| 20260906044358 | 28 | 148 | 0.0 | 0.0 | 0.00 | 0.00 | 0.00 | 76 | 1012.2 |
| 20260906043903 | 28 | 148 | 0.0 | 0.0 | 0.00 | 0.00 | 0.00 | 75 | 1012.3 |
| 20260906043405 | 28 | 148 | 0.0 | 1.6 | 0.00 | 0.00 | 0.00 | 75 | 1012.3 |
| 20260906042906 | 28 | 148 | 0.0 | 1.6 | 0.00 | 0.00 | 0.00 | 75 | 1012.3 |
| 20260906042413 | 28 | 148 | 0.0 | 3.2 | 0.00 | 0.00 | 0.00 | 74 | 1012.2 |
| 20260906041913 | 28 | 150 | 0.0 | 3.2 | 0.00 | 0.00 | 0.00 | 74 | 1012.1 |
| 20260906041417 | 28 | 150 | 0.0 | 1.6 | 0.00 | 0.00 | 0.00 | 74 | 1012.1 |
| 20260906040918 | 28 | 151 | 0.0 | 1.6 | 0.00 | 0.00 | 0.00 | 73 | 1012.2 |
| 20260906040417 | 28 | 150 | 0.0 | 1.6 | 0.00 | 0.00 | 0.00 | 73 | 1012.1 |
| 20260906035837 | 28 | 150 | 0.0 | 1.6 | 0.00 | 0.00 | 0.00 | 73 | 1012.1 |
| 20260906035421 | 29 | 150 | 0.0 | 1.6 | 0.00 | 0.00 | 0.00 | 73 | 1012.1 |
| 20260906034922 | 29 | 152 | 0.0 | 1.6 | 0.00 | 0.00 | 0.00 | 72 | 1012.1 |
| 20260906034423 | 29 | 152 | 0.0 | 1.6 | 0.00 | 0.00 | 0.00 | 72 | 1012.1 |
| 20260906033926 | 29 | 152 | 0.0 | 1.6 | 0.00 | 0.00 | 0.00 | 72 | 1012.1 |
| 20260906033347 | 29 | 152 | 0.0 | 1.6 | 0.00 | 0.00 | 0.00 | 71 | 1012.0 |
| 20260906032851 | 29 | 152 | 0.0 | 1.6 | 0.00 | 0.00 | 0.00 | 71 | 1012.1 |
| 20260906032356 | 29 | 152 | 0.0 | 1.6 | 0.00 | 0.00 | 0.00 | 71 | 1012.1 |
| 20260906031854 | 29 | 152 | 0.0 | 8.0 | 0.00 | 0.00 | 0.00 | 69 | 1012.2 |
| 20260906031359 | 29 | 152 | 0.0 | 8.0 | 0.00 | 0.00 | 0.00 | 69 | 1012.2 |
| 20260906030858 | 30 | 163 | 0.0 | 4.8 | 0.00 | 0.00 | 0.00 | 69 | 1012.2 |
| 20260906025848 | 30 | 140 | 0.0 | 3.2 | 0.00 | 0.00 | 0.00 | 68 | 1012.2 |
| 20260906025351 | 30 | 143 | 0.0 | 3.2 | 0.00 | 0.00 | 0.00 | 68 | 1012.2 |
| 20260906024337 | 30 | 150 | 1.6 | 11.3 | 0.00 | 0.00 | 0.00 | 67 | 1012.1 |
| 20260906023916 | 30 | 160 | 3.2 | 12.9 | 0.00 | 0.00 | 0.00 | 67 | 1011.9 |
| 20260906023418 | 30 | 150 | 3.2 | 12.9 | 0.00 | 0.00 | 0.00 | 66 | 1011.8 |
| 20260906022917 | 30 | 147 | 1.6 | 9.7 | 0.00 | 0.00 | 0.00 | 66 | 1011.7 |
| 20260906022335 | 30 | 159 | 0.0 | 3.2 | 0.00 | 0.00 | 0.00 | 66 | 1011.7 |
| 20260906021402 | 30 | 165 | 0.0 | 3.2 | 0.00 | 0.00 | 0.00 | 66 | 1011.4 |
| 20260906020350 | 30 | 148 | 0.0 | 8.0 | 0.00 | 0.00 | 0.00 | 65 | 1011.3 |
| 20260906015850 | 30 | 150 | 0.0 | 8.0 | 0.00 | 0.00 | 0.00 | 64 | 1011.3 |
| 20260906015349 | 31 | 142 | 1.6 | 9.7 | 0.00 | 0.00 | 0.00 | 64 | 1011.3 |
| 20260906014923 | 31 | 123 | 3.2 | 9.7 | 0.00 | 0.00 | 0.00 | 64 | 1011.3 |
| 20260906014343 | 31 | 144 | 3.2 | 14.5 | 0.00 | 0.00 | 0.00 | 63 | 1011.2 |
| 20260906013409 | 31 | 143 | 0.0 | 14.5 | 0.00 | 0.00 | 0.00 | 63 | 1011.1 |
| 20260906012908 | 31 | 132 | 3.2 | 16.1 | 0.00 | 0.00 | 0.00 | 62 | 1011.1 |
| 20260906012408 | 31 | 150 | 3.2 | 16.1 | 0.00 | 0.00 | 0.00 | 62 | 1011.0 |
| 20260906011906 | 31 | 138 | 3.2 | 17.7 | 0.00 | 0.00 | 0.00 | 62 | 1010.9 |
| 20260906011403 | 32 | 147 | 6.4 | 19.3 | 0.00 | 0.00 | 0.00 | 61 | 1010.8 |
| 20260906010904 | 32 | 227 | 6.4 | 19.3 | 0.00 | 0.00 | 0.00 | 61 | 1010.8 |
| 20260906010404 | 32 | 142 | 6.4 | 19.3 | 0.00 | 0.00 | 0.00 | 60 | 1010.7 |
| 20260906005904 | 33 | 142 | 4.8 | 19.3 | 0.00 | 0.00 | 0.00 | 58 | 1010.6 |
| 20260906005404 | 34 | 175 | 0.0 | 1.6 | 0.00 | 0.00 | 0.00 | 52 | 1010.5 |
| 20260906004908 | 34 | 136 | 0.0 | 1.6 | 0.00 | 0.00 | 0.00 | 49 | 1010.2 |
| 20260906004411 | 34 | 135 | 0.0 | 1.6 | 0.00 | 0.00 | 0.00 | 49 | 1010.2 |
| 20260906003912 | 35 | 143 | 0.0 | 3.2 | 0.00 | 0.00 | 0.00 | 48 | 1010.2 |
| 20260906003333 | 35 | 148 | 0.0 | 3.2 | 0.00 | 0.00 | 0.00 | 48 | 1010.2 |
| 20260906002835 | 35 | 116 | 0.0 | 1.6 | 0.00 | 0.00 | 0.00 | 48 | 1010.3 |
| 20260906002336 | 35 | 116 | 0.0 | 3.2 | 0.00 | 0.00 | 0.00 | 48 | 1010.2 |
| 20260906001916 | 35 | 116 | 0.0 | 3.2 | 0.00 | 0.00 | 0.00 | 49 | 1010.3 |
| 20260906001331 | 35 | 130 | 0.0 | 1.6 | 0.00 | 0.00 | 0.00 | 48 | 1010.3 |
| 20260906000355 | 35 | 117 | 0.0 | 6.4 | 0.00 | 0.00 | 0.00 | 48 | 1010.2 |
| 20260905235856 | 35 | 143 | 0.0 | 6.4 | 0.00 | 0.00 | 0.00 | 48 | 1010.2 |
| 20260905235355 | 35 | 126 | 0.0 | 1.6 | 0.00 | 0.00 | 0.00 | 47 | 1010.2 |
| 20260905234858 | 35 | 126 | 0.0 | 4.8 | 0.00 | 0.00 | 0.00 | 47 | 1010.1 |
| 20260905234400 | 36 | 105 | 0.0 | 4.8 | 0.00 | 0.00 | 0.00 | 46 | 1010.0 |
| 20260905233343 | 36 | 132 | 0.0 | 1.6 | 0.00 | 0.00 | 0.00 | 46 | 1010.1 |
| 20260905232844 | 36 | 111 | 0.0 | 1.6 | 0.00 | 0.00 | 0.00 | 45 | 1010.0 |
| 20260905232349 | 37 | 99 | 0.0 | 1.6 | 0.00 | 0.00 | 0.00 | 45 | 1010.0 |
| 20260905231848 | 37 | 88 | 0.0 | 3.2 | 0.00 | 0.00 | 0.00 | 44 | 1010.0 |
| 20260905231349 | 37 | 86 | 0.0 | 4.8 | 0.00 | 0.00 | 0.00 | 45 | 1010.0 |
| 20260905230332 | 37 | 65 | 1.6 | 8.0 | 0.00 | 0.00 | 0.00 | 44 | 1010.1 |
| 20260905225831 | 37 | 82 | 0.0 | 3.2 | 0.00 | 0.00 | 0.00 | 43 | 1010.1 |
| 20260905225333 | 37 | 90 | 0.0 | 3.2 | 0.00 | 0.00 | 0.00 | 45 | 1010.0 |
| 20260905224350 | 37 | 169 | 0.0 | 1.6 | 0.00 | 0.00 | 0.00 | 45 | 1009.9 |